Messages - map view · info · telemetry · weather · raw · status · beacons · messages · bulletins · browse · moving · my account
Callsign:
Show:

Loading message packets...

APRS messages are stored for 14 days. It is possible to search using wildcards (*?) after a prefix.

2019-04-19 06:36:05 EDT: TAESVR>NWS-WARN: 191045z,SVR_STORM,ALC031-045-061-067-069-FLC059-063-GAC099
2019-04-19 06:36:05 EDT: TAESVR>NWS_WARN: 191045z,SVR_STORM,ALC031-045-061-067-069-FLC059-063-GAC099
2019-04-19 06:37:05 EDT: MRXSVR>NWS-WARN: 191115z,SVR_STORM,TNC029-089-155
2019-04-19 06:37:05 EDT: MRXSVR>NWS_WARN: 191115z,SVR_STORM,TNC029-089-155
2019-04-19 06:37:05 EDT: FFCFFW>NWS-WARN: 191615z,FLASH_FLOOD,GAC067-089-121-135
2019-04-19 06:37:05 EDT: FFCFFW>NWS_WARN: 191615z,FLASH_FLOOD,GAC067-089-121-135
2019-04-19 06:37:16 EDT: VK2GJ-2>VK2GJ-7: Directs=VK2AMW-1 VK2BWI-3 VK2TDS-1
2019-04-19 06:37:30 EDT: DB0TS-10>DB0TS-9: T#001,000,000,000,000,000,00000000,Test
2019-04-19 06:37:54 EDT: SHLBTP>SHLBTP: Info - Cabinet Temp = 65.1F Vcc = 13.6V
2019-04-19 06:38:04 EDT: TAESVR>NWS-WARN: 191045z,SVR_STORM,FLC005-059-063-131-133
2019-04-19 06:38:04 EDT: FFCFFW>NWS-WARN: 191630z,FLASH_FLOOD,GAC145-199-231
2019-04-19 06:38:04 EDT: FFCFFW>NWS_WARN: 191630z,FLASH_FLOOD,GAC145-199-231
2019-04-19 06:38:04 EDT: TAESVR>NWS_WARN: 191045z,SVR_STORM,FLC005-059-063-131-133
2019-04-19 06:38:11 EDT: MTHOOD>N7QME: hum 49 12 77
2019-04-19 06:38:51 EDT: KG5JIV-9>W5WK-2: have a good day
2019-04-19 06:39:00 EDT: EUCSWW>BOM_WARN: 191500z,SEVERE_WX,WA_PW005-007
2019-04-19 06:39:00 EDT: INTSWW>BOM_WARN: 191500z,SEVERE_WX,WA_PW005-007
2019-04-19 06:39:00 EDT: EUCSWW>BOMEUC: Severe Weather Warning for Damaging Winds for Eucla and
2019-04-19 06:39:00 EDT: EUCSWW>BOMEUC: South Interior forecast districts
2019-04-19 06:39:00 EDT: INTSWW>BOMINT: Severe Weather Warning for Damaging Winds for Eucla and
2019-04-19 06:39:00 EDT: INTSWW>BOMINT: South Interior forecast districts
2019-04-19 06:39:00 EDT: SMWMWW>BOM_WARN: 191430z,WIND,SA_MW001
2019-04-19 06:39:00 EDT: SMWMWW>BOMSMW: Strong Wind Warning for coastal waters between WA-SA Border
2019-04-19 06:39:00 EDT: SMWMWW>BOMSMW: and Fowlers Bay for Friday
2019-04-19 06:39:00 EDT: GFLSWW>BOM_CANCL: 191500z,SEVERE_WX,WA_PW004
2019-04-19 06:39:00 EDT: GFLSWW>BOMGFL: Cancellation of Severe Weather Warning for Goldfields
2019-04-19 06:39:00 EDT: GFLSWW>BOMGFL: forecast district
2019-04-19 06:39:01 EDT: QMWHSW>BOM_WARN: 191400z,BUSHFIRE,QLD_MW011>012-014
2019-04-19 06:39:01 EDT: QMWHSW>BOMQMW: Hazardous Surf Warning for Fraser Island Coast: Sandy Cape
2019-04-19 06:39:01 EDT: QMWHSW>BOMQMW: to Double Island Point, Sunshine Coast Waters: Double
2019-04-19 06:39:01 EDT: QMWHSW>BOMQMW: Island Point to Cape Moreton and Gold Coast Waters: Cape
2019-04-19 06:39:01 EDT: QMWHSW>BOMQMW: Moreton to Point Danger for Friday
2019-04-19 06:39:02 EDT: EA1CIU-7>EA1WS-9: Saludos de TomasSaludos de Tomas
2019-04-19 06:39:11 EDT: FFCSVR>NWS-WARN: 191100z,SVR_STORM,GAC151-217-247
2019-04-19 06:39:11 EDT: FFCSVR>NWS_WARN: 191100z,SVR_STORM,GAC151-217-247
2019-04-19 06:39:24 EDT: JA1DMW-5>JE1LJJ-9: ge from highway bus
2019-04-19 06:40:03 EDT: OE6FEG-7>SOTA: oe/st-375 07.0285 cw calling now
2019-04-19 06:40:04 EDT: SOTA>OE6FEG-7: Spotted:OE6FEG on OE/ST-375 7.0285 CW
2019-04-19 06:40:04 EDT: FFCSVR>NWS-WARN: 191100z,SVR_STORM,GAC151-217-247
2019-04-19 06:40:04 EDT: FFCSVR>NWS_WARN: 191100z,SVR_STORM,GAC151-217-247
2019-04-19 06:40:15 EDT: EA1CIU-7>EA1WS-9: Saludos de TomasSaludos de Tomas
2019-04-19 06:40:20 EDT: HC1TWF>HP1AVS-4: Saludos desde Ecuador, QSL
2019-04-19 06:40:52 EDT: VK2GJ-2>VK2GJ-7: Directs=VK2AMW-1 VK2TDS-1
2019-04-19 06:40:58 EDT: SOTA>OE6FEG-7: Spotted:OE6FEG on OE/ST-375 7.0285 CW
2019-04-19 06:41:04 EDT: GSPSVR>NWS-WARN: 191115z,SVR_STORM,GAC137-241-257-NCC113-SCC073
2019-04-19 06:41:04 EDT: FFCSVR>NWS-WARN: 191100z,SVR_STORM,GAC151-217-247
2019-04-19 06:41:04 EDT: GSPSVR>NWS_WARN: 191115z,SVR_STORM,GAC137-241-257-NCC113-SCC073
2019-04-19 06:41:04 EDT: FFCSVR>NWS_WARN: 191100z,SVR_STORM,GAC151-217-247
2019-04-19 06:41:04 EDT: TAESVR>NWS-WARN: 191045z,SVR_STORM,ALC031-045-061-067-069-FLC059-063-GAC099
2019-04-19 06:41:04 EDT: TAESVR>NWS_WARN: 191045z,SVR_STORM,ALC031-045-061-067-069-FLC059-063-GAC099
< previous
FAQ · Blog · Discussion group · Linking to aprs.fi · AIS sites · Service status · Database statistics · Advertising on aprs.fi · Technical details · API · Change log · Planned changes · Credits and thanks · Terms Of Service · iPhone/iPad APRS